createdAt,value
2019-05-12T00:00:08.985Z,82.11
2019-05-12T00:02:39.692Z,85.58
2019-05-12T00:05:08.888Z,85.98
2019-05-12T00:07:38.331Z,84.85
2019-05-12T00:10:08.610Z,87.31
2019-05-12T00:12:38.556Z,85.79
2019-05-12T00:15:08.307Z,87.88
2019-05-12T00:17:38.836Z,87.94
2019-05-12T00:20:08.708Z,90.32
2019-05-12T00:22:41.998Z,90.72
2019-05-12T00:25:10.844Z,90.10
2019-05-12T00:27:39.419Z,90.61
2019-05-12T00:30:10.452Z,91.98
2019-05-12T00:32:39.338Z,91.07
2019-05-12T00:35:08.207Z,91.43
2019-05-12T00:37:38.175Z,92.59
2019-05-12T00:40:08.848Z,93.96
2019-05-12T00:42:38.122Z,93.37
2019-05-12T00:45:08.246Z,94.22
2019-05-12T00:47:38.888Z,97.21
2019-05-12T00:50:08.231Z,99.32
2019-05-12T00:52:38.619Z,100.00
2019-05-12T00:55:08.062Z,100.00
2019-05-12T00:57:38.333Z,100.00
2019-05-12T01:00:10.409Z,100.00
2019-05-12T01:02:39.044Z,99.27
2019-05-12T01:05:08.716Z,100.00
2019-05-12T01:07:38.232Z,99.64
2019-05-12T01:10:08.642Z,100.00
2019-05-12T01:12:38.155Z,100.00
2019-05-12T01:15:08.370Z,100.00
2019-05-12T01:17:40.096Z,100.00
2019-05-12T01:20:09.003Z,100.00
2019-05-12T01:22:38.388Z,100.00
2019-05-12T01:25:08.807Z,100.00
2019-05-12T01:27:38.075Z,100.00
2019-05-12T01:30:08.810Z,100.00
2019-05-12T01:32:39.327Z,100.00
2019-05-12T01:35:08.872Z,100.00
2019-05-12T01:37:38.458Z,100.00
2019-05-12T01:40:08.823Z,100.00
2019-05-12T01:42:38.378Z,100.00
2019-05-12T01:45:09.399Z,100.00
2019-05-12T01:47:38.508Z,100.00
2019-05-12T01:50:09.222Z,100.00
2019-05-12T01:52:38.662Z,100.00
2019-05-12T01:55:10.907Z,100.00
2019-05-12T01:57:39.466Z,100.00
2019-05-12T02:00:11.001Z,100.00
2019-05-12T02:02:39.635Z,100.00
2019-05-12T02:05:08.943Z,100.00
2019-05-12T02:07:47.812Z,100.00
2019-05-12T02:10:18.013Z,100.00
2019-05-12T02:12:49.129Z,100.00
2019-05-12T02:15:18.432Z,100.00
2019-05-12T02:17:48.178Z,100.00
2019-05-12T02:20:18.244Z,100.00
2019-05-12T02:22:47.751Z,100.00
2019-05-12T02:25:18.447Z,100.00
2019-05-12T02:27:47.781Z,100.00
2019-05-12T02:30:20.172Z,100.00
2019-05-12T02:32:53.012Z,100.00
2019-05-12T02:35:17.726Z,100.00
2019-05-12T02:37:46.264Z,100.00
2019-05-12T02:40:15.520Z,100.00
2019-05-12T02:42:46.349Z,100.00
2019-05-12T02:45:15.578Z,100.00
2019-05-12T02:47:45.659Z,100.00
2019-05-12T02:50:17.565Z,100.00
2019-05-12T02:52:46.742Z,100.00
2019-05-12T02:55:15.442Z,100.00
2019-05-12T02:57:45.409Z,100.00
2019-05-12T03:00:15.914Z,100.00
2019-05-12T03:02:47.459Z,100.00
2019-05-12T03:05:16.079Z,100.00
2019-05-12T03:07:47.082Z,100.00
2019-05-12T03:10:16.138Z,100.00
2019-05-12T03:12:45.156Z,100.00
2019-05-12T03:15:15.150Z,100.00
2019-05-12T03:17:44.456Z,100.00
2019-05-12T03:20:15.309Z,100.00
2019-05-12T03:22:44.901Z,100.00
2019-05-12T03:25:20.965Z,100.00
2019-05-12T03:27:44.588Z,100.00
2019-05-12T03:30:18.989Z,100.00
2019-05-12T03:32:47.593Z,100.00
2019-05-12T03:35:17.487Z,98.37
2019-05-12T03:37:45.384Z,96.44
2019-05-12T03:40:14.682Z,95.55
2019-05-12T03:42:44.415Z,94.69
2019-05-12T03:45:14.950Z,92.79
2019-05-12T03:47:45.488Z,88.10
2019-05-12T03:50:15.004Z,84.33
2019-05-12T03:52:44.990Z,80.47
2019-05-12T03:55:30.324Z,75.65
2019-05-12T03:57:45.012Z,72.41
2019-05-12T04:00:15.897Z,70.08
2019-05-12T04:02:45.567Z,69.80
2019-05-12T04:05:15.458Z,68.37
2019-05-12T04:07:45.130Z,65.88
2019-05-12T04:10:15.584Z,64.51
2019-05-12T04:12:44.920Z,61.58
2019-05-12T04:15:15.148Z,61.23
2019-05-12T04:17:45.663Z,58.77
2019-05-12T04:20:15.305Z,57.88
2019-05-12T04:22:44.847Z,53.94
2019-05-12T04:25:14.694Z,54.83
2019-05-12T04:27:45.089Z,54.79
2019-05-12T04:30:14.769Z,53.26
2019-05-12T04:32:45.240Z,53.81
2019-05-12T04:35:14.782Z,54.07
2019-05-12T04:37:44.952Z,54.68
2019-05-12T04:40:15.086Z,51.52
2019-05-12T04:42:45.168Z,50.12
2019-05-12T04:45:15.774Z,48.70
2019-05-12T04:47:45.172Z,47.42
2019-05-12T04:50:15.576Z,48.08
2019-05-12T04:52:44.794Z,46.92
2019-05-12T04:55:15.131Z,44.48
2019-05-12T04:57:44.972Z,42.91
2019-05-12T05:00:15.695Z,41.69
2019-05-12T05:02:45.684Z,41.75
2019-05-12T05:05:15.060Z,41.73
2019-05-12T05:07:44.798Z,43.31
2019-05-12T05:10:14.509Z,45.09
2019-05-12T05:12:44.949Z,44.68
2019-05-12T05:15:14.787Z,42.96
2019-05-12T05:17:44.274Z,40.84
2019-05-12T05:20:13.536Z,38.56
2019-05-12T05:22:44.093Z,36.37
2019-05-12T05:25:14.489Z,35.61
2019-05-12T05:27:44.362Z,34.85
2019-05-12T05:30:13.819Z,34.82
2019-05-12T05:32:44.412Z,35.76
2019-05-12T05:35:13.717Z,35.38
2019-05-12T05:37:44.217Z,34.29
2019-05-12T05:40:14.184Z,35.25
2019-05-12T05:42:43.882Z,34.77
2019-05-12T05:45:19.548Z,34.04
2019-05-12T05:47:44.278Z,33.37
2019-05-12T05:50:13.657Z,33.08
2019-05-12T05:52:43.845Z,37.79
2019-05-12T05:55:20.179Z,38.23
2019-05-12T05:57:44.434Z,38.61
2019-05-12T06:00:22.852Z,39.67
2019-05-12T06:02:44.328Z,40.94
2019-05-12T06:05:14.422Z,40.93
2019-05-12T06:07:44.309Z,40.47
2019-05-12T06:10:14.490Z,37.42
2019-05-12T06:12:46.485Z,34.74
2019-05-12T06:15:14.102Z,33.68
2019-05-12T06:17:43.841Z,32.90
2019-05-12T06:20:13.431Z,32.36
2019-05-12T06:22:43.777Z,31.25
2019-05-12T06:25:16.259Z,30.73
2019-05-12T06:27:44.280Z,30.80
2019-05-12T06:30:14.815Z,30.27
2019-05-12T06:32:50.273Z,31.24
2019-05-12T06:35:15.106Z,30.36
2019-05-12T06:37:44.466Z,30.20
2019-05-12T06:40:14.127Z,30.30
2019-05-12T06:42:43.658Z,34.17
2019-05-12T06:45:14.105Z,34.33
2019-05-12T06:47:45.351Z,34.61
2019-05-12T06:50:14.654Z,33.23
2019-05-12T06:52:48.722Z,33.53
2019-05-12T06:55:14.604Z,32.91
2019-05-12T06:57:45.864Z,32.23
2019-05-12T07:00:14.674Z,32.72
2019-05-12T07:02:50.058Z,33.12
2019-05-12T07:05:14.648Z,33.89
2019-05-12T07:07:46.077Z,35.07
2019-05-12T07:10:35.246Z,34.72
2019-05-12T07:12:55.995Z,36.75
2019-05-12T07:15:15.112Z,37.33
2019-05-12T07:17:49.905Z,35.07
2019-05-12T07:20:18.289Z,34.03
2019-05-12T07:22:48.810Z,33.45
2019-05-12T07:25:22.896Z,35.14
2019-05-12T07:27:55.234Z,35.14
2019-05-12T07:30:21.609Z,35.28
2019-05-12T07:32:51.172Z,35.63
2019-05-12T07:35:20.640Z,36.07
2019-05-12T07:37:50.362Z,35.12
2019-05-12T07:40:24.330Z,36.68
2019-05-12T07:42:51.253Z,38.22
2019-05-12T07:45:22.274Z,38.79
2019-05-12T07:47:50.207Z,38.95
2019-05-12T07:50:20.335Z,37.29
2019-05-12T07:52:49.199Z,37.51
2019-05-12T07:55:18.065Z,37.95
2019-05-12T07:57:55.410Z,37.79
2019-05-12T08:00:25.692Z,36.32
2019-05-12T08:02:47.409Z,38.24
2019-05-12T08:05:20.095Z,36.58
2019-05-12T08:07:46.404Z,37.49
2019-05-12T08:10:19.671Z,36.71
2019-05-12T08:12:45.392Z,37.43
2019-05-12T08:15:14.618Z,38.18
2019-05-12T08:17:44.069Z,37.94
2019-05-12T08:20:13.600Z,38.64
2019-05-12T08:22:43.832Z,37.69
2019-05-12T08:25:13.432Z,36.92
2019-05-12T08:27:45.227Z,36.53
2019-05-12T08:30:13.947Z,37.31
2019-05-12T08:32:44.243Z,36.76
2019-05-12T08:35:14.079Z,38.04
2019-05-12T08:37:44.171Z,36.96
2019-05-12T08:40:15.570Z,35.32
2019-05-12T08:42:44.329Z,35.32
2019-05-12T08:45:23.751Z,34.75
2019-05-12T08:47:44.112Z,35.06
2019-05-12T08:50:13.668Z,36.11
2019-05-12T08:52:44.216Z,34.87
2019-05-12T08:55:16.328Z,36.58
2019-05-12T08:57:49.415Z,37.03
2019-05-12T09:00:14.495Z,35.83
2019-05-12T09:02:48.802Z,33.54
2019-05-12T09:05:14.394Z,32.06
2019-05-12T09:07:43.752Z,32.06
2019-05-12T09:10:14.299Z,31.98
2019-05-12T09:12:44.121Z,31.57
2019-05-12T09:15:13.715Z,33.56
2019-05-12T09:17:49.065Z,34.18
2019-05-12T09:20:13.712Z,34.18
2019-05-12T09:22:43.210Z,33.28
2019-05-12T09:25:14.146Z,33.57
2019-05-12T09:27:48.021Z,33.39
2019-05-12T09:30:14.188Z,33.39
2019-05-12T09:32:45.359Z,34.38
2019-05-12T09:35:14.399Z,34.76
2019-05-12T09:37:44.134Z,33.75
2019-05-12T09:40:14.906Z,33.59
2019-05-12T09:42:44.077Z,33.80
2019-05-12T09:45:13.795Z,33.73
2019-05-12T09:47:43.679Z,32.03
2019-05-12T09:50:18.240Z,32.38
2019-05-12T09:52:44.102Z,34.16
2019-05-12T09:55:14.797Z,35.44
2019-05-12T09:57:45.098Z,35.79
2019-05-12T10:00:14.841Z,34.95
2019-05-12T10:02:43.744Z,34.10
2019-05-12T10:05:14.414Z,32.66
2019-05-12T10:07:44.510Z,32.54
2019-05-12T10:10:14.237Z,32.32
2019-05-12T10:12:46.186Z,31.32
2019-05-12T10:15:18.812Z,31.10
2019-05-12T10:17:44.944Z,31.82
2019-05-12T10:20:13.846Z,31.04
2019-05-12T10:22:43.766Z,30.42
2019-05-12T10:25:14.368Z,30.19
2019-05-12T10:27:44.268Z,30.28
2019-05-12T10:30:17.202Z,30.34
2019-05-12T10:32:45.083Z,29.45
2019-05-12T10:35:21.050Z,29.37
2019-05-12T10:37:47.254Z,30.47
2019-05-12T10:40:16.901Z,30.16
2019-05-12T10:42:49.367Z,30.84
2019-05-12T10:45:20.460Z,29.46
2019-05-12T10:47:46.512Z,28.74
2019-05-12T10:50:15.711Z,28.19
2019-05-12T10:52:44.337Z,29.53
2019-05-12T10:55:14.061Z,33.76
2019-05-12T10:57:43.974Z,35.76
2019-05-12T11:00:19.784Z,34.93
2019-05-12T11:02:45.574Z,33.61
2019-05-12T11:05:21.282Z,33.25
2019-05-12T11:07:44.798Z,32.80
2019-05-12T11:10:19.671Z,33.57
2019-05-12T11:12:44.261Z,35.21
2019-05-12T11:15:13.738Z,34.22
2019-05-12T11:17:53.391Z,34.81
2019-05-12T11:20:25.041Z,35.52
2019-05-12T11:22:54.351Z,36.14
2019-05-12T11:25:24.704Z,36.87
2019-05-12T11:27:54.867Z,37.51
2019-05-12T11:30:23.886Z,37.86
2019-05-12T11:32:54.048Z,36.76
2019-05-12T11:35:23.670Z,36.38
2019-05-12T11:37:53.886Z,37.18
2019-05-12T11:40:23.873Z,36.57
2019-05-12T11:42:55.650Z,36.21
2019-05-12T11:45:24.196Z,35.91
2019-05-12T11:47:59.221Z,36.51
2019-05-12T11:50:23.412Z,34.77
2019-05-12T11:52:52.322Z,36.21
2019-05-12T11:55:26.180Z,38.81
2019-05-12T11:57:51.416Z,36.55
2019-05-12T12:00:24.038Z,38.13
2019-05-12T12:02:51.971Z,37.92
2019-05-12T12:05:20.569Z,37.26
2019-05-12T12:07:52.773Z,37.06
2019-05-12T12:10:19.563Z,36.74
2019-05-12T12:12:49.398Z,35.78
2019-05-12T12:15:20.284Z,35.06
2019-05-12T12:17:49.426Z,36.77
2019-05-12T12:20:22.351Z,37.15
2019-05-12T12:22:48.857Z,36.91
2019-05-12T12:25:19.513Z,38.08
2019-05-12T12:27:48.180Z,38.13
2019-05-12T12:30:20.007Z,38.01
2019-05-12T12:32:50.309Z,36.99
2019-05-12T12:35:17.900Z,37.40
2019-05-12T12:37:46.514Z,35.13
2019-05-12T12:40:15.277Z,35.96
2019-05-12T12:42:47.052Z,36.18
2019-05-12T12:45:18.755Z,34.04
2019-05-12T12:47:49.350Z,36.06
2019-05-12T12:50:20.346Z,35.26
2019-05-12T12:52:48.877Z,35.31
2019-05-12T12:55:17.617Z,35.73
2019-05-12T12:57:50.593Z,36.52
2019-05-12T13:00:29.708Z,37.23
2019-05-12T13:02:49.425Z,37.70
2019-05-12T13:05:18.054Z,37.64
2019-05-12T13:07:46.690Z,38.04
2019-05-12T13:10:15.520Z,38.35
2019-05-12T13:12:44.050Z,37.39
2019-05-12T13:15:14.474Z,37.88
2019-05-12T13:17:44.720Z,38.08
2019-05-12T13:20:14.301Z,37.42
2019-05-12T13:22:44.387Z,37.76
2019-05-12T13:25:14.299Z,37.56
2019-05-12T13:27:43.056Z,36.99
2019-05-12T13:30:19.717Z,36.71
2019-05-12T13:32:44.160Z,37.89
2019-05-12T13:35:17.468Z,38.44
2019-05-12T13:37:43.676Z,39.10
2019-05-12T13:40:12.509Z,39.75
2019-05-12T13:42:43.639Z,40.10
2019-05-12T13:45:16.046Z,40.25
2019-05-12T13:47:43.954Z,40.38
2019-05-12T13:50:21.349Z,40.80
2019-05-12T13:52:43.474Z,40.76
2019-05-12T13:55:13.442Z,40.91
2019-05-12T13:57:52.341Z,41.62
2019-05-12T14:00:14.359Z,41.47
2019-05-12T14:02:44.142Z,41.25
2019-05-12T14:05:15.011Z,41.21
2019-05-12T14:07:43.909Z,42.54
2019-05-12T14:10:13.920Z,42.92
2019-05-12T14:12:44.036Z,42.77
2019-05-12T14:15:14.218Z,43.78
2019-05-12T14:17:43.678Z,43.51
2019-05-12T14:20:17.867Z,44.50
2019-05-12T14:22:44.797Z,45.76
2019-05-12T14:25:15.148Z,46.15
2019-05-12T14:27:44.520Z,45.24
2019-05-12T14:30:14.683Z,44.25
2019-05-12T14:32:44.018Z,43.76
2019-05-12T14:35:12.962Z,43.41
2019-05-12T14:37:45.981Z,43.31
2019-05-12T14:40:13.613Z,43.84
2019-05-12T14:42:44.217Z,44.73
2019-05-12T14:45:13.767Z,44.08
2019-05-12T14:47:43.610Z,45.12
2019-05-12T14:50:14.123Z,46.15
2019-05-12T14:52:43.953Z,44.90
2019-05-12T14:55:13.842Z,45.00
2019-05-12T14:57:42.729Z,44.94
2019-05-12T15:00:17.355Z,45.25
2019-05-12T15:02:43.831Z,46.07
2019-05-12T15:05:14.133Z,47.14
2019-05-12T15:07:51.798Z,47.78
2019-05-12T15:10:14.251Z,48.62
2019-05-12T15:12:44.145Z,48.54
2019-05-12T15:15:18.437Z,48.20
2019-05-12T15:17:44.444Z,48.11
2019-05-12T15:20:14.053Z,48.34
2019-05-12T15:22:51.165Z,48.45
2019-05-12T15:25:14.537Z,48.56
2019-05-12T15:27:47.013Z,48.87
2019-05-12T15:30:22.854Z,48.76
2019-05-12T15:32:44.495Z,48.22
2019-05-12T15:35:13.981Z,48.58
2019-05-12T15:37:43.516Z,48.42
2019-05-12T15:40:14.537Z,49.02
2019-05-12T15:42:44.989Z,49.33
2019-05-12T15:45:16.670Z,49.28
2019-05-12T15:47:44.722Z,49.28
2019-05-12T15:50:14.646Z,49.47
2019-05-12T15:52:45.670Z,50.12
2019-05-12T15:55:18.077Z,50.52
2019-05-12T15:57:45.289Z,50.99
2019-05-12T16:00:17.002Z,51.10
2019-05-12T16:02:45.040Z,50.11
2019-05-12T16:05:14.708Z,50.18
2019-05-12T16:07:47.608Z,50.76
2019-05-12T16:10:15.048Z,51.09
2019-05-12T16:12:43.910Z,51.10
2019-05-12T16:15:17.048Z,51.23
2019-05-12T16:17:44.056Z,51.01
2019-05-12T16:20:14.139Z,50.55
2019-05-12T16:22:45.185Z,50.63
2019-05-12T16:25:15.361Z,50.74
2019-05-12T16:27:44.796Z,50.77
2019-05-12T16:30:14.092Z,51.13
2019-05-12T16:32:47.418Z,51.42
2019-05-12T16:35:14.605Z,52.11
2019-05-12T16:37:44.324Z,52.36
2019-05-12T16:40:14.127Z,52.68
2019-05-12T16:42:48.139Z,52.90
2019-05-12T16:45:14.691Z,52.97
2019-05-12T16:47:44.857Z,53.67
2019-05-12T16:50:15.998Z,53.95
2019-05-12T16:52:45.292Z,54.25
2019-05-12T16:55:14.581Z,54.27
2019-05-12T16:57:52.793Z,54.58
2019-05-12T17:00:14.520Z,54.74
2019-05-12T17:02:52.384Z,54.98
2019-05-12T17:05:19.729Z,55.15
2019-05-12T17:07:44.447Z,55.74
2019-05-12T17:10:16.538Z,56.15
2019-05-12T17:12:44.058Z,56.53
2019-05-12T17:15:14.910Z,56.85
2019-05-12T17:17:44.660Z,57.39
2019-05-12T17:20:14.271Z,57.55
2019-05-12T17:22:45.656Z,57.87
2019-05-12T17:25:15.470Z,58.46
2019-05-12T17:27:44.755Z,58.86
2019-05-12T17:30:14.385Z,58.99
2019-05-12T17:32:57.112Z,59.40
2019-05-12T17:35:14.891Z,59.71
2019-05-12T17:37:44.076Z,59.88
2019-05-12T17:40:20.159Z,60.37
2019-05-12T17:42:44.316Z,60.67
2019-05-12T17:45:18.599Z,61.01
2019-05-12T17:47:44.826Z,61.30
2019-05-12T17:50:14.583Z,61.53
2019-05-12T17:52:44.916Z,59.87
2019-05-12T17:55:15.000Z,58.52
2019-05-12T17:57:44.479Z,58.96
2019-05-12T18:00:14.714Z,59.11
2019-05-12T18:02:44.042Z,58.52
2019-05-12T18:05:15.479Z,58.33
2019-05-12T18:07:44.729Z,58.17
2019-05-12T18:10:13.992Z,57.16
2019-05-12T18:12:45.091Z,57.63
2019-05-12T18:15:15.085Z,57.93
2019-05-12T18:17:49.421Z,58.78
2019-05-12T18:20:14.902Z,59.04
2019-05-12T18:22:45.183Z,59.41
2019-05-12T18:25:14.763Z,59.96
2019-05-12T18:27:50.291Z,60.19
2019-05-12T18:30:16.658Z,60.21
2019-05-12T18:32:44.305Z,60.35
2019-05-12T18:35:13.633Z,60.74
2019-05-12T18:37:42.525Z,61.07
2019-05-12T18:40:14.731Z,61.28
2019-05-12T18:42:42.737Z,61.54
2019-05-12T18:45:17.362Z,61.59
2019-05-12T18:47:44.055Z,61.77
2019-05-12T18:50:14.204Z,61.87
2019-05-12T18:52:46.184Z,61.91
2019-05-12T18:55:13.484Z,61.96
2019-05-12T18:57:46.291Z,61.69
2019-05-12T19:00:20.691Z,62.06
2019-05-12T19:02:51.148Z,62.20
2019-05-12T19:05:29.721Z,62.31
2019-05-12T19:07:49.945Z,62.15
2019-05-12T19:10:18.729Z,61.94
2019-05-12T19:12:51.623Z,62.13
2019-05-12T19:15:21.815Z,62.30
2019-05-12T19:17:48.096Z,62.57
2019-05-12T19:20:19.734Z,62.77
2019-05-12T19:22:56.117Z,62.76
2019-05-12T19:25:19.473Z,63.08
2019-05-12T19:27:54.969Z,63.00
2019-05-12T19:30:25.278Z,63.38
2019-05-12T19:32:51.721Z,63.57
2019-05-12T19:35:20.397Z,63.89
2019-05-12T19:37:49.319Z,64.02
2019-05-12T19:40:17.985Z,64.05
2019-05-12T19:42:46.679Z,64.58
2019-05-12T19:45:21.488Z,64.34
2019-05-12T19:47:49.050Z,64.39
2019-05-12T19:50:18.668Z,64.80
2019-05-12T19:52:46.968Z,64.72
2019-05-12T19:55:16.026Z,64.56
2019-05-12T19:57:44.579Z,64.70
2019-05-12T20:00:14.189Z,65.01
2019-05-12T20:02:43.908Z,65.12
2019-05-12T20:05:17.161Z,65.22
2019-05-12T20:07:44.654Z,65.04
2019-05-12T20:10:16.336Z,65.22
2019-05-12T20:12:48.705Z,65.68
2019-05-12T20:15:15.275Z,65.24
2019-05-12T20:17:45.191Z,65.45
2019-05-12T20:20:17.770Z,65.76
2019-05-12T20:22:45.059Z,65.87
2019-05-12T20:25:14.529Z,65.82
2019-05-12T20:27:44.535Z,65.71
2019-05-12T20:30:19.421Z,65.71
2019-05-12T20:32:44.670Z,65.58
2019-05-12T20:35:14.548Z,65.62
2019-05-12T20:37:52.740Z,65.69
2019-05-12T20:40:14.839Z,65.25
2019-05-12T20:43:04.749Z,65.51
2019-05-12T20:45:14.763Z,65.56
2019-05-12T20:47:45.012Z,64.97
2019-05-12T20:50:14.793Z,65.13
2019-05-12T20:52:48.847Z,65.06
2019-05-12T20:55:14.813Z,65.52
2019-05-12T20:57:50.190Z,65.50
2019-05-12T21:00:14.315Z,65.95
2019-05-12T21:02:44.276Z,66.16
2019-05-12T21:05:19.726Z,66.16
2019-05-12T21:07:44.311Z,65.47
2019-05-12T21:10:14.769Z,65.29
2019-05-12T21:12:46.385Z,65.16
2019-05-12T21:15:20.160Z,64.90
2019-05-12T21:17:52.066Z,64.39
2019-05-12T21:20:16.781Z,64.39
2019-05-12T21:22:45.079Z,64.19
2019-05-12T21:25:13.722Z,64.12
2019-05-12T21:27:46.911Z,64.29
2019-05-12T21:30:15.178Z,64.25
2019-05-12T21:32:47.317Z,64.68
2019-05-12T21:35:21.920Z,64.92
2019-05-12T21:37:45.926Z,64.70
2019-05-12T21:40:15.238Z,64.82
2019-05-12T21:42:44.717Z,65.34
2019-05-12T21:45:14.504Z,65.40
2019-05-12T21:47:44.417Z,65.56
2019-05-12T21:50:14.093Z,65.01
2019-05-12T21:52:44.511Z,65.47
2019-05-12T21:55:21.683Z,65.60
2019-05-12T21:57:44.108Z,65.78
2019-05-12T22:00:34.126Z,64.98
2019-05-12T22:03:08.209Z,64.79
2019-05-12T22:05:50.043Z,64.20
2019-05-12T22:08:06.526Z,64.07
2019-05-12T22:10:35.679Z,64.34
2019-05-12T22:13:07.358Z,63.99
2019-05-12T22:15:36.335Z,64.19
2019-05-12T22:18:05.264Z,64.33
2019-05-12T22:20:35.417Z,64.04
2019-05-12T22:23:11.830Z,64.40
2019-05-12T22:25:34.881Z,64.87
2019-05-12T22:28:08.233Z,64.56
2019-05-12T22:30:34.857Z,64.59
2019-05-12T22:33:10.494Z,64.60
2019-05-12T22:35:34.422Z,64.93
2019-05-12T22:38:09.179Z,65.14
2019-05-12T22:40:33.623Z,65.66
2019-05-12T22:43:04.533Z,66.35
2019-05-12T22:45:36.203Z,66.74
2019-05-12T22:48:04.103Z,66.92
2019-05-12T22:50:35.217Z,67.14
2019-05-12T22:53:04.643Z,67.11
2019-05-12T22:55:35.920Z,67.33
2019-05-12T22:58:03.973Z,67.46
2019-05-12T23:00:34.127Z,68.16
2019-05-12T23:03:07.241Z,68.54
2019-05-12T23:05:33.541Z,69.40
2019-05-12T23:08:06.265Z,70.34
2019-05-12T23:10:33.201Z,71.18
2019-05-12T23:13:04.835Z,71.55
2019-05-12T23:15:33.500Z,71.19
2019-05-12T23:18:04.320Z,71.33
2019-05-12T23:20:33.409Z,71.51
2019-05-12T23:23:03.904Z,72.16
2019-05-12T23:25:33.708Z,71.94
2019-05-12T23:28:08.308Z,71.66
2019-05-12T23:30:32.887Z,71.78
2019-05-12T23:33:03.822Z,72.36
2019-05-12T23:35:34.907Z,72.02
2019-05-12T23:38:04.344Z,72.64
2019-05-12T23:40:34.497Z,72.52
2019-05-12T23:43:03.996Z,73.21
2019-05-12T23:45:34.043Z,73.50
2019-05-12T23:48:03.776Z,73.82
2019-05-12T23:50:32.877Z,74.26
2019-05-12T23:53:03.503Z,74.73
2019-05-12T23:55:34.668Z,74.88
2019-05-12T23:58:04.176Z,74.71
